createdAt,value
2019-03-15T00:01:23.376Z,6.40
2019-03-15T00:03:50.812Z,6.40
2019-03-15T00:06:17.872Z,6.40
2019-03-15T00:08:45.502Z,6.40
2019-03-15T00:11:12.799Z,6.40
2019-03-15T00:13:39.827Z,6.30
2019-03-15T00:16:07.522Z,6.40
2019-03-15T00:18:34.825Z,6.40
2019-03-15T00:21:03.079Z,6.50
2019-03-15T00:23:30.252Z,6.40
2019-03-15T00:25:57.791Z,6.50
2019-03-15T00:28:25.049Z,6.50
2019-03-15T00:30:52.231Z,6.50
2019-03-15T00:33:19.395Z,6.50
2019-03-15T00:35:46.420Z,6.50
2019-03-15T00:38:13.631Z,6.60
2019-03-15T00:40:40.767Z,6.60
2019-03-15T00:43:07.973Z,6.60
2019-03-15T00:45:35.034Z,6.60
2019-03-15T00:48:02.147Z,6.60
2019-03-15T00:50:29.259Z,6.60
2019-03-15T00:52:56.408Z,6.60
2019-03-15T00:55:23.420Z,6.60
2019-03-15T00:57:50.607Z,6.50
2019-03-15T01:00:18.060Z,6.60
2019-03-15T01:02:45.272Z,6.60
2019-03-15T01:05:12.721Z,6.60
2019-03-15T01:07:39.949Z,6.60
2019-03-15T01:10:07.178Z,6.70
2019-03-15T01:12:34.138Z,6.70
2019-03-15T01:15:01.274Z,6.70
2019-03-15T01:17:28.257Z,6.60
2019-03-15T01:19:55.550Z,6.60
2019-03-15T01:22:22.548Z,6.60
2019-03-15T01:24:49.617Z,6.50
2019-03-15T01:27:16.975Z,6.50
2019-03-15T01:29:43.992Z,6.40
2019-03-15T01:32:11.107Z,6.30
2019-03-15T01:34:39.083Z,6.20
2019-03-15T01:37:06.106Z,6.20
2019-03-15T01:39:33.178Z,6.10
2019-03-15T01:42:00.471Z,6.10
2019-03-15T01:44:27.879Z,6.10
2019-03-15T01:46:55.203Z,6.10
2019-03-15T01:49:22.618Z,6.10
2019-03-15T01:51:50.025Z,6.10
2019-03-15T01:54:17.502Z,6.10
2019-03-15T01:56:44.904Z,6.10
2019-03-15T01:59:11.862Z,6.00
2019-03-15T02:01:38.867Z,6.00
2019-03-15T02:04:05.962Z,5.90
2019-03-15T02:06:33.361Z,5.90
2019-03-15T02:09:00.457Z,5.90
2019-03-15T02:11:27.919Z,6.00
2019-03-15T02:13:54.972Z,6.00
2019-03-15T02:16:21.968Z,6.00
2019-03-15T02:18:48.934Z,6.00
2019-03-15T02:21:16.013Z,6.10
2019-03-15T02:23:43.283Z,6.00
2019-03-15T02:26:10.255Z,6.00
2019-03-15T02:28:37.240Z,6.00
2019-03-15T02:31:04.405Z,6.00
2019-03-15T02:33:33.391Z,6.00
2019-03-15T02:36:00.806Z,6.00
2019-03-15T02:38:27.908Z,6.00
2019-03-15T02:40:54.866Z,6.00
2019-03-15T02:43:22.842Z,6.00
2019-03-15T02:45:49.838Z,6.10
2019-03-15T02:48:16.842Z,6.10
2019-03-15T02:50:43.864Z,6.10
2019-03-15T02:53:10.939Z,6.10
2019-03-15T02:55:37.945Z,6.10
2019-03-15T02:58:05.327Z,6.10
2019-03-15T03:00:32.330Z,6.10
2019-03-15T03:02:59.300Z,6.20
2019-03-15T03:05:26.726Z,6.10
2019-03-15T03:07:53.713Z,6.10
2019-03-15T03:10:29.128Z,6.10
2019-03-15T03:12:56.799Z,6.00
2019-03-15T03:15:25.038Z,6.00
2019-03-15T03:17:52.278Z,6.00
2019-03-15T03:20:21.001Z,5.90
2019-03-15T03:22:48.183Z,5.90
2019-03-15T03:25:17.240Z,5.90
2019-03-15T03:27:44.896Z,5.90
2019-03-15T03:30:13.260Z,5.90
2019-03-15T03:32:44.240Z,5.90
2019-03-15T03:35:10.870Z,5.90
2019-03-15T03:37:38.232Z,5.90
2019-03-15T03:40:05.757Z,5.90
2019-03-15T03:42:33.404Z,5.90
2019-03-15T03:45:00.506Z,5.90
2019-03-15T03:47:27.615Z,6.00
2019-03-15T03:49:54.628Z,6.00
2019-03-15T03:52:21.652Z,6.00
2019-03-15T03:54:49.105Z,6.10
2019-03-15T03:57:16.176Z,6.10
2019-03-15T03:59:43.395Z,6.10
2019-03-15T04:02:10.703Z,6.10
2019-03-15T04:04:38.004Z,6.10
2019-03-15T04:07:05.526Z,6.00
2019-03-15T04:09:32.576Z,6.10
2019-03-15T04:12:00.515Z,6.10
2019-03-15T04:14:27.563Z,6.10
2019-03-15T04:16:54.649Z,6.00
2019-03-15T04:19:21.862Z,6.00
2019-03-15T04:21:49.864Z,6.00
2019-03-15T04:24:16.887Z,6.00
2019-03-15T04:26:43.879Z,6.00
2019-03-15T04:29:11.280Z,6.00
2019-03-15T04:31:38.332Z,6.00
2019-03-15T04:34:05.495Z,6.00
2019-03-15T04:36:32.491Z,6.00
2019-03-15T04:38:59.885Z,6.10
2019-03-15T04:41:27.612Z,6.10
2019-03-15T04:43:54.839Z,6.10
2019-03-15T04:46:22.203Z,6.10
2019-03-15T04:48:49.253Z,6.20
2019-03-15T04:51:16.269Z,6.20
2019-03-15T04:53:43.409Z,6.20
2019-03-15T04:56:10.523Z,6.20
2019-03-15T04:58:37.805Z,6.20
2019-03-15T05:01:04.832Z,6.20
2019-03-15T05:03:32.176Z,6.20
2019-03-15T05:06:03.487Z,6.10
2019-03-15T05:08:28.133Z,6.20
2019-03-15T05:10:55.271Z,6.10
2019-03-15T05:13:23.510Z,6.10
2019-03-15T05:15:50.503Z,6.10
2019-03-15T05:18:17.531Z,6.10
2019-03-15T05:20:44.539Z,6.00
2019-03-15T05:23:11.560Z,6.00
2019-03-15T05:25:38.667Z,6.10
2019-03-15T05:28:05.763Z,6.10
2019-03-15T05:30:33.002Z,6.10
2019-03-15T05:32:59.970Z,6.10
2019-03-15T05:35:26.950Z,6.10
2019-03-15T05:37:54.242Z,6.10
2019-03-15T05:40:21.329Z,6.10
2019-03-15T05:42:48.404Z,6.10
2019-03-15T05:45:15.449Z,6.10
2019-03-15T05:47:42.745Z,6.10
2019-03-15T05:50:09.789Z,6.10
2019-03-15T05:52:36.907Z,6.20
2019-03-15T05:55:05.297Z,6.20
2019-03-15T05:57:33.663Z,6.20
2019-03-15T06:00:03.221Z,6.20
2019-03-15T06:02:30.193Z,6.20
2019-03-15T06:04:57.427Z,6.20
2019-03-15T06:07:24.429Z,6.20
2019-03-15T06:09:51.423Z,6.20
2019-03-15T06:12:18.406Z,6.20
2019-03-15T06:14:46.962Z,6.30
2019-03-15T06:17:14.522Z,6.30
2019-03-15T06:19:42.164Z,6.30
2019-03-15T06:22:09.162Z,6.30
2019-03-15T06:24:36.155Z,6.30
2019-03-15T06:27:03.306Z,6.30
2019-03-15T06:29:30.647Z,6.30
2019-03-15T06:31:57.662Z,6.30
2019-03-15T06:34:24.615Z,6.30
2019-03-15T06:36:51.578Z,6.30
2019-03-15T06:39:18.851Z,6.30
2019-03-15T06:41:45.966Z,6.20
2019-03-15T06:44:12.922Z,6.30
2019-03-15T06:46:39.934Z,6.30
2019-03-15T06:49:07.221Z,6.30
2019-03-15T06:51:34.301Z,6.30
2019-03-15T06:54:10.787Z,6.30
2019-03-15T06:56:30.530Z,6.30
2019-03-15T06:58:57.510Z,6.30
2019-03-15T07:01:24.496Z,6.40
2019-03-15T07:03:51.645Z,6.40
2019-03-15T07:06:18.711Z,6.50
2019-03-15T07:08:45.790Z,6.50
2019-03-15T07:11:12.779Z,6.50
2019-03-15T07:13:39.809Z,6.60
2019-03-15T07:16:06.887Z,6.70
2019-03-15T07:18:33.866Z,6.70
2019-03-15T07:21:01.983Z,6.70
2019-03-15T07:23:29.211Z,6.80
2019-03-15T07:25:56.191Z,6.80
2019-03-15T07:28:23.467Z,6.80
2019-03-15T07:30:50.443Z,6.80
2019-03-15T07:33:17.464Z,6.80
2019-03-15T07:35:44.850Z,6.80
2019-03-15T07:38:11.862Z,6.90
2019-03-15T07:40:38.817Z,6.90
2019-03-15T07:43:05.947Z,6.90
2019-03-15T07:45:32.972Z,6.80
2019-03-15T07:47:59.956Z,7.00
2019-03-15T07:50:26.961Z,7.00
2019-03-15T07:52:54.034Z,7.00
2019-03-15T07:55:21.441Z,7.00
2019-03-15T07:57:48.915Z,7.10
2019-03-15T08:00:16.534Z,7.00
2019-03-15T08:02:43.513Z,7.00
2019-03-15T08:05:10.883Z,7.00
2019-03-15T08:07:44.451Z,7.00
2019-03-15T08:10:07.164Z,7.10
2019-03-15T08:12:38.475Z,7.10
2019-03-15T08:15:04.554Z,7.10
2019-03-15T08:17:31.566Z,7.10
2019-03-15T08:20:00.122Z,7.10
2019-03-15T08:22:27.640Z,7.30
2019-03-15T08:24:54.746Z,7.30
2019-03-15T08:27:21.900Z,7.40
2019-03-15T08:29:52.585Z,7.40
2019-03-15T08:32:18.888Z,7.30
2019-03-15T08:34:46.075Z,7.50
2019-03-15T08:37:13.181Z,7.50
2019-03-15T08:39:40.467Z,7.50
2019-03-15T08:42:07.621Z,7.50
2019-03-15T08:44:35.242Z,7.50
2019-03-15T08:47:02.596Z,7.60
2019-03-15T08:49:29.987Z,7.60
2019-03-15T08:52:03.793Z,7.70
2019-03-15T08:54:26.631Z,7.80
2019-03-15T08:56:54.712Z,7.80
2019-03-15T08:59:21.889Z,7.80
2019-03-15T09:01:48.988Z,7.90
2019-03-15T09:04:16.973Z,7.90
2019-03-15T09:06:44.394Z,7.90
2019-03-15T09:09:12.770Z,7.90
2019-03-15T09:11:39.874Z,7.90
2019-03-15T09:14:06.880Z,8.00
2019-03-15T09:16:34.368Z,7.90
2019-03-15T09:19:01.439Z,8.00
2019-03-15T09:21:28.481Z,8.10
2019-03-15T09:23:55.626Z,8.10
2019-03-15T09:26:22.981Z,8.20
2019-03-15T09:28:50.203Z,8.20
2019-03-15T09:31:18.348Z,8.20
2019-03-15T09:33:45.707Z,8.20
2019-03-15T09:36:12.690Z,8.30
2019-03-15T09:38:39.762Z,8.40
2019-03-15T09:41:06.826Z,8.40
2019-03-15T09:43:34.199Z,8.40
2019-03-15T09:46:02.366Z,8.40
2019-03-15T09:48:29.427Z,8.50
2019-03-15T09:50:56.500Z,8.40
2019-03-15T09:53:23.743Z,8.50
2019-03-15T09:55:50.939Z,8.70
2019-03-15T09:58:19.064Z,8.70
2019-03-15T10:00:46.418Z,8.60
2019-03-15T10:03:22.175Z,8.60
2019-03-15T10:05:42.312Z,8.70
2019-03-15T10:08:09.345Z,8.70
2019-03-15T10:10:36.549Z,8.60
2019-03-15T10:13:06.475Z,8.60
2019-03-15T10:15:34.249Z,8.70
2019-03-15T10:18:01.363Z,8.70
2019-03-15T10:20:29.187Z,8.60
2019-03-15T10:23:05.318Z,8.60
2019-03-15T10:25:26.624Z,8.50
2019-03-15T10:27:53.939Z,8.60
2019-03-15T10:30:21.534Z,8.60
2019-03-15T10:32:50.472Z,8.70
2019-03-15T10:35:17.756Z,8.80
2019-03-15T10:37:45.099Z,8.70
2019-03-15T10:40:13.511Z,8.80
2019-03-15T10:42:40.703Z,8.80
2019-03-15T10:45:08.221Z,8.80
2019-03-15T10:47:36.460Z,8.70
2019-03-15T10:50:05.257Z,8.70
2019-03-15T10:52:32.375Z,8.60
2019-03-15T10:55:00.486Z,8.60
2019-03-15T10:57:27.672Z,8.60
2019-03-15T10:59:54.805Z,8.50
2019-03-15T11:02:22.015Z,8.50
2019-03-15T11:04:49.173Z,8.50
2019-03-15T11:07:16.265Z,8.60
2019-03-15T11:09:43.347Z,8.50
2019-03-15T11:12:10.416Z,8.40
2019-03-15T11:14:37.425Z,8.40
2019-03-15T11:17:04.552Z,8.50
2019-03-15T11:19:32.065Z,8.50
2019-03-15T11:21:59.286Z,8.40
2019-03-15T11:24:26.915Z,8.30
2019-03-15T11:26:54.002Z,8.30
2019-03-15T11:29:21.109Z,8.30
2019-03-15T11:31:48.560Z,8.20
2019-03-15T11:34:15.679Z,8.10
2019-03-15T11:36:43.001Z,8.10
2019-03-15T11:39:10.658Z,8.10
2019-03-15T11:41:37.648Z,8.00
2019-03-15T11:44:06.088Z,8.10
2019-03-15T11:46:33.774Z,7.90
2019-03-15T11:49:00.871Z,7.90
2019-03-15T11:51:27.887Z,8.00
2019-03-15T11:53:55.027Z,7.90
2019-03-15T11:56:26.882Z,7.90
2019-03-15T11:58:51.099Z,7.90
2019-03-15T12:01:18.599Z,7.90
2019-03-15T12:03:52.863Z,7.80
2019-03-15T12:06:14.718Z,7.80
2019-03-15T12:08:42.035Z,7.80
2019-03-15T12:11:09.019Z,7.70
2019-03-15T12:13:36.318Z,7.80
2019-03-15T12:16:03.625Z,7.80
2019-03-15T12:18:30.964Z,7.80
2019-03-15T12:20:58.236Z,7.80
2019-03-15T12:23:25.637Z,7.90
2019-03-15T12:25:52.701Z,8.00
2019-03-15T12:28:19.950Z,7.90
2019-03-15T12:30:47.375Z,7.90
2019-03-15T12:33:14.704Z,7.90
2019-03-15T12:35:41.992Z,7.80
2019-03-15T12:38:09.316Z,7.90
2019-03-15T12:40:36.461Z,7.90
2019-03-15T12:43:03.851Z,8.00
2019-03-15T12:45:30.931Z,8.00
2019-03-15T12:47:58.086Z,8.10
2019-03-15T12:50:25.507Z,8.20
2019-03-15T12:52:52.504Z,8.40
2019-03-15T12:55:19.767Z,8.30
2019-03-15T12:57:49.273Z,8.30
2019-03-15T13:00:15.779Z,8.60
2019-03-15T13:02:42.955Z,8.60
2019-03-15T13:07:51.307Z,8.60
2019-03-15T13:10:18.449Z,8.50
2019-03-15T13:12:45.832Z,8.50
2019-03-15T13:15:13.032Z,8.60
2019-03-15T13:17:40.289Z,8.80
2019-03-15T13:20:08.450Z,8.90
2019-03-15T13:22:36.540Z,9.00
2019-03-15T13:25:06.694Z,9.20
2019-03-15T13:27:34.058Z,9.30
2019-03-15T13:30:01.159Z,9.50
2019-03-15T13:32:28.232Z,9.60
2019-03-15T13:34:55.569Z,9.70
2019-03-15T13:37:23.668Z,9.70
2019-03-15T13:39:50.657Z,9.80
2019-03-15T13:42:17.987Z,9.80
2019-03-15T13:44:44.943Z,9.90
2019-03-15T13:47:12.072Z,9.90
2019-03-15T13:49:39.082Z,10.00
2019-03-15T13:52:06.597Z,10.10
2019-03-15T13:54:33.619Z,10.20
2019-03-15T13:57:00.571Z,10.30
2019-03-15T13:59:27.546Z,10.40
2019-03-15T14:01:55.035Z,10.50
2019-03-15T14:04:22.116Z,10.60
2019-03-15T14:06:49.239Z,10.70
2019-03-15T14:09:16.626Z,10.70
2019-03-15T14:11:43.848Z,10.70
2019-03-15T14:14:10.829Z,10.80
2019-03-15T14:16:37.835Z,10.80
2019-03-15T14:19:06.087Z,10.90
2019-03-15T14:21:33.149Z,10.90
2019-03-15T14:24:00.482Z,11.00
2019-03-15T14:26:27.533Z,11.10
2019-03-15T14:28:54.574Z,11.20
2019-03-15T14:31:22.948Z,11.20
2019-03-15T14:33:50.414Z,11.10
2019-03-15T14:36:17.438Z,11.10
2019-03-15T14:38:44.850Z,11.10
2019-03-15T14:41:11.975Z,11.00
2019-03-15T14:43:39.269Z,11.00
2019-03-15T14:46:06.359Z,10.90
2019-03-15T14:48:33.674Z,10.80
2019-03-15T14:51:00.970Z,10.80
2019-03-15T14:53:28.123Z,10.80
2019-03-15T14:55:55.117Z,10.80
2019-03-15T14:58:22.230Z,10.80
2019-03-15T15:00:49.235Z,10.80
2019-03-15T15:03:16.230Z,10.90
2019-03-15T15:05:43.577Z,11.00
2019-03-15T15:08:10.570Z,11.10
2019-03-15T15:10:37.699Z,11.20
2019-03-15T15:13:04.791Z,11.10
2019-03-15T15:15:31.876Z,11.10
2019-03-15T15:17:58.919Z,11.00
2019-03-15T15:20:26.962Z,10.90
2019-03-15T15:22:54.536Z,10.70
2019-03-15T15:25:21.495Z,10.70
2019-03-15T15:27:48.930Z,10.70
2019-03-15T15:30:15.910Z,10.70
2019-03-15T15:32:43.075Z,10.60
2019-03-15T15:35:12.249Z,10.50
2019-03-15T15:37:40.339Z,10.40
2019-03-15T15:40:08.342Z,10.50
2019-03-15T15:42:35.365Z,10.50
2019-03-15T15:45:02.457Z,10.60
2019-03-15T15:47:29.421Z,10.60
2019-03-15T15:49:56.721Z,10.50
2019-03-15T15:52:23.729Z,10.40
2019-03-15T15:54:50.708Z,10.30
2019-03-15T15:57:18.034Z,10.20
2019-03-15T15:59:45.144Z,10.20
2019-03-15T16:02:12.432Z,10.20
2019-03-15T16:04:39.597Z,10.00
2019-03-15T16:07:06.592Z,10.00
2019-03-15T16:09:33.996Z,10.00
2019-03-15T16:12:00.960Z,10.00
2019-03-15T16:14:27.958Z,10.00
2019-03-15T16:16:55.334Z,10.00
2019-03-15T16:19:22.731Z,9.90
2019-03-15T16:21:50.374Z,9.90
2019-03-15T16:24:17.471Z,9.70
2019-03-15T16:26:44.467Z,9.70
2019-03-15T16:29:12.134Z,9.60
2019-03-15T16:31:39.403Z,9.70
2019-03-15T16:34:06.350Z,9.60
2019-03-15T16:36:33.347Z,9.60
2019-03-15T16:39:00.319Z,9.60
2019-03-15T16:41:27.743Z,9.50
2019-03-15T16:43:55.041Z,9.40
2019-03-15T16:46:22.018Z,9.30
2019-03-15T16:48:49.327Z,9.30
2019-03-15T16:51:19.925Z,9.30
2019-03-15T16:53:45.290Z,9.30
2019-03-15T16:56:13.610Z,9.20
2019-03-15T16:58:45.699Z,9.10
2019-03-15T17:01:10.107Z,9.20
2019-03-15T17:03:37.238Z,9.10
2019-03-15T17:06:04.655Z,9.00
2019-03-15T17:08:31.865Z,9.00
2019-03-15T17:10:58.927Z,9.00
2019-03-15T17:13:25.901Z,9.00
2019-03-15T17:15:52.907Z,9.00
2019-03-15T17:18:19.992Z,8.90
2019-03-15T17:20:47.349Z,8.90
2019-03-15T17:23:14.321Z,8.90
2019-03-15T17:25:41.389Z,8.80
2019-03-15T17:28:08.438Z,8.80
2019-03-15T17:30:37.411Z,8.80
2019-03-15T17:33:06.143Z,8.70
2019-03-15T17:35:33.557Z,8.80
2019-03-15T17:38:00.724Z,8.70
2019-03-15T17:40:27.694Z,8.70
2019-03-15T17:42:54.799Z,8.70
2019-03-15T17:45:22.133Z,8.70
2019-03-15T17:47:49.201Z,8.70
2019-03-15T17:50:16.358Z,8.70
2019-03-15T17:52:43.843Z,8.60
2019-03-15T17:55:11.694Z,8.60
2019-03-15T17:57:38.714Z,8.50
2019-03-15T18:00:41.435Z,8.50
2019-03-15T18:03:19.916Z,8.50
2019-03-15T18:05:37.787Z,8.50
2019-03-15T18:08:04.899Z,8.50
2019-03-15T18:10:32.878Z,8.40
2019-03-15T18:13:00.594Z,8.40
2019-03-15T18:15:27.814Z,8.30
2019-03-15T18:17:55.905Z,8.30
2019-03-15T18:20:22.977Z,8.30
2019-03-15T18:22:51.152Z,8.30
2019-03-15T18:25:18.222Z,8.30
2019-03-15T18:27:46.475Z,8.30
2019-03-15T18:30:13.766Z,8.30
2019-03-15T18:32:40.866Z,8.30
2019-03-15T18:35:08.544Z,8.30
2019-03-15T18:37:35.982Z,8.20
2019-03-15T18:40:05.795Z,8.30
2019-03-15T18:42:33.245Z,8.20
2019-03-15T18:45:00.604Z,8.20
2019-03-15T18:47:27.569Z,8.20
2019-03-15T18:49:54.689Z,8.20
2019-03-15T18:52:21.671Z,8.20
2019-03-15T18:54:48.659Z,8.20
2019-03-15T18:57:15.626Z,8.10
2019-03-15T18:59:42.655Z,8.20
2019-03-15T19:02:10.042Z,8.20
2019-03-15T19:04:37.055Z,8.20
2019-03-15T19:07:04.129Z,8.10
2019-03-15T19:09:31.703Z,8.10
2019-03-15T19:11:58.847Z,8.10
2019-03-15T19:14:26.077Z,8.10
2019-03-15T19:16:53.717Z,8.10
2019-03-15T19:19:20.702Z,8.10
2019-03-15T19:21:49.123Z,8.10
2019-03-15T19:24:16.243Z,8.10
2019-03-15T19:26:43.278Z,8.10
2019-03-15T19:29:10.391Z,8.10
2019-03-15T19:31:38.055Z,8.10
2019-03-15T19:34:05.284Z,8.10
2019-03-15T19:36:32.403Z,8.10
2019-03-15T19:38:59.443Z,8.00
2019-03-15T19:41:26.475Z,8.00
2019-03-15T19:43:53.547Z,8.00
2019-03-15T19:46:20.846Z,8.00
2019-03-15T19:48:48.274Z,8.10
2019-03-15T19:51:15.375Z,8.00
2019-03-15T19:53:42.480Z,8.00
2019-03-15T19:56:09.518Z,8.00
2019-03-15T19:58:36.664Z,8.00
2019-03-15T20:01:03.757Z,8.00
2019-03-15T20:03:43.361Z,8.00
2019-03-15T20:06:00.691Z,8.00
2019-03-15T20:08:27.705Z,8.00
2019-03-15T20:11:00.668Z,7.90
2019-03-15T20:13:27.712Z,7.90
2019-03-15T20:15:55.107Z,7.90
2019-03-15T20:18:22.179Z,7.90
2019-03-15T20:20:49.589Z,7.90
2019-03-15T20:23:16.661Z,7.90
2019-03-15T20:25:44.750Z,7.90
2019-03-15T20:28:11.930Z,7.90
2019-03-15T20:30:51.290Z,7.90
2019-03-15T20:33:07.990Z,7.80
2019-03-15T20:35:35.378Z,7.80
2019-03-15T20:38:03.014Z,7.80
2019-03-15T20:40:30.120Z,7.80
2019-03-15T20:42:57.289Z,7.80
2019-03-15T20:45:25.149Z,7.80
2019-03-15T20:47:52.361Z,7.70
2019-03-15T20:50:19.355Z,7.70
2019-03-15T20:52:46.828Z,7.70
2019-03-15T20:55:14.764Z,7.70
2019-03-15T20:57:41.779Z,7.70
2019-03-15T21:00:11.808Z,7.70
2019-03-15T21:02:39.004Z,7.70
2019-03-15T21:05:07.973Z,7.60
2019-03-15T21:07:35.533Z,7.60
2019-03-15T21:10:02.975Z,7.60
2019-03-15T21:12:30.000Z,7.60
2019-03-15T21:14:57.131Z,7.60
2019-03-15T21:17:24.325Z,7.60
2019-03-15T21:19:51.439Z,7.60
2019-03-15T21:22:19.661Z,7.60
2019-03-15T21:24:46.763Z,7.60
2019-03-15T21:27:13.795Z,7.60
2019-03-15T21:29:41.163Z,7.60
2019-03-15T21:32:08.442Z,7.50
2019-03-15T21:34:36.896Z,7.60
2019-03-15T21:37:04.527Z,7.60
2019-03-15T21:39:34.191Z,7.50
2019-03-15T21:42:02.059Z,7.60
2019-03-15T21:44:29.155Z,7.60
2019-03-15T21:46:56.150Z,7.60
2019-03-15T21:49:23.535Z,7.60
2019-03-15T21:51:50.651Z,7.60
2019-03-15T21:54:18.859Z,7.60
2019-03-15T21:56:45.834Z,7.60
2019-03-15T21:59:12.850Z,7.60
2019-03-15T22:01:40.311Z,7.60
2019-03-15T22:04:07.296Z,7.60
2019-03-15T22:06:34.342Z,7.50
2019-03-15T22:09:01.671Z,7.50
2019-03-15T22:11:30.037Z,7.50
2019-03-15T22:13:57.105Z,7.50
2019-03-15T22:16:24.543Z,7.50
2019-03-15T22:18:51.548Z,7.50
2019-03-15T22:21:18.640Z,7.50
2019-03-15T22:23:45.605Z,7.50
2019-03-15T22:26:12.594Z,7.60
2019-03-15T22:28:39.728Z,7.50
2019-03-15T22:31:16.516Z,7.50
2019-03-15T22:33:36.850Z,7.50
2019-03-15T22:36:04.085Z,7.60
2019-03-15T22:38:31.597Z,7.50
2019-03-15T22:40:58.807Z,7.50
2019-03-15T22:43:25.839Z,7.60
2019-03-15T22:45:53.955Z,7.60
2019-03-15T22:48:21.175Z,7.60
2019-03-15T22:50:48.573Z,7.60
2019-03-15T22:53:15.887Z,7.60
2019-03-15T22:55:42.881Z,7.60
2019-03-15T22:58:10.221Z,7.60
2019-03-15T23:00:38.116Z,7.60
2019-03-15T23:03:06.467Z,7.60
2019-03-15T23:05:33.523Z,7.60
2019-03-15T23:08:00.924Z,7.50
2019-03-15T23:10:27.982Z,7.50
2019-03-15T23:12:55.266Z,7.50
2019-03-15T23:15:22.327Z,7.40
2019-03-15T23:17:49.451Z,7.50
2019-03-15T23:20:16.496Z,7.40
2019-03-15T23:22:44.454Z,7.40
2019-03-15T23:25:11.655Z,7.40
2019-03-15T23:27:38.811Z,7.40
2019-03-15T23:30:06.893Z,7.30
2019-03-15T23:32:33.968Z,7.30
2019-03-15T23:35:01.018Z,7.30
2019-03-15T23:37:28.883Z,7.30
2019-03-15T23:39:55.931Z,7.30
2019-03-15T23:42:23.018Z,7.30
2019-03-15T23:44:50.025Z,7.20
2019-03-15T23:47:17.202Z,7.20
2019-03-15T23:49:44.174Z,7.20
2019-03-15T23:52:11.513Z,7.20
2019-03-15T23:54:38.627Z,7.20
2019-03-15T23:57:05.716Z,7.20
2019-03-15T23:59:33.028Z,7.20
